createdAt,value
2022-12-14T00:00:00.886Z,46.57
2022-12-14T00:03:03.443Z,44.00
2022-12-14T00:06:18.189Z,42.71
2022-12-14T00:09:20.792Z,44.43
2022-12-14T00:12:26.393Z,45.73
2022-12-14T00:15:28.889Z,43.47
2022-12-14T00:18:31.032Z,42.50
2022-12-14T00:21:35.973Z,45.69
2022-12-14T00:24:38.311Z,43.61
2022-12-14T00:27:46.491Z,42.63
2022-12-14T00:30:49.175Z,44.36
2022-12-14T00:33:53.363Z,45.34
2022-12-14T00:36:56.580Z,45.52
2022-12-14T00:40:00.344Z,46.94
2022-12-14T00:43:02.583Z,47.26
2022-12-14T00:46:05.335Z,49.18
2022-12-14T00:49:10.103Z,48.79
2022-12-14T00:52:12.207Z,49.65
2022-12-14T00:55:15.295Z,48.52
2022-12-14T00:58:22.064Z,48.84
2022-12-14T01:01:24.426Z,48.91
2022-12-14T01:04:29.827Z,49.20
2022-12-14T01:07:33.274Z,49.60
2022-12-14T01:10:41.101Z,49.75
2022-12-14T01:13:43.719Z,50.65
2022-12-14T01:16:47.349Z,50.27
2022-12-14T01:19:50.240Z,50.03
2022-12-14T01:22:59.403Z,50.78
2022-12-14T01:26:04.811Z,51.33
2022-12-14T01:29:09.203Z,50.79
2022-12-14T01:32:11.529Z,49.88
2022-12-14T01:35:14.098Z,50.42
2022-12-14T01:38:16.307Z,50.96
2022-12-14T01:41:47.731Z,50.10
2022-12-14T01:44:57.365Z,50.70
2022-12-14T01:48:03.352Z,50.42
2022-12-14T01:51:05.921Z,51.55
2022-12-14T01:54:13.016Z,50.81
2022-12-14T01:57:17.265Z,51.52
2022-12-14T02:00:20.588Z,51.86
2022-12-14T02:03:29.399Z,52.61
2022-12-14T02:06:38.374Z,51.55
2022-12-14T02:09:42.215Z,51.93
2022-12-14T02:12:49.447Z,51.90
2022-12-14T02:15:52.658Z,51.80
2022-12-14T02:18:55.013Z,52.57
2022-12-14T02:22:18.600Z,52.58
2022-12-14T02:25:27.721Z,52.04
2022-12-14T02:29:07.103Z,52.17
2022-12-14T02:32:40.062Z,54.03
2022-12-14T02:35:44.880Z,53.16
2022-12-14T02:38:55.620Z,53.44
2022-12-14T02:42:09.776Z,53.47
2022-12-14T02:45:24.069Z,53.68
2022-12-14T02:48:33.252Z,54.68
2022-12-14T02:51:57.057Z,54.23
2022-12-14T02:55:18.088Z,54.70
2022-12-14T02:58:34.173Z,56.41
2022-12-14T03:01:39.973Z,56.23
2022-12-14T03:04:47.776Z,56.03
2022-12-14T03:08:08.982Z,57.02
2022-12-14T03:11:16.339Z,56.81
2022-12-14T03:14:28.850Z,56.19
2022-12-14T03:17:34.717Z,55.65
2022-12-14T03:20:39.240Z,55.82
2022-12-14T03:23:44.147Z,55.26
2022-12-14T03:26:59.548Z,55.69
2022-12-14T03:30:12.790Z,55.96
2022-12-14T03:33:18.887Z,54.39
2022-12-14T03:36:42.765Z,55.26
2022-12-14T03:39:47.807Z,54.97
2022-12-14T03:42:56.127Z,55.24
2022-12-14T03:46:03.377Z,55.15
2022-12-14T03:49:28.376Z,55.37
2022-12-14T03:53:04.122Z,55.08
2022-12-14T03:56:33.003Z,55.38
2022-12-14T03:59:47.539Z,55.31
2022-12-14T04:03:27.729Z,55.59
2022-12-14T04:06:40.882Z,55.46
2022-12-14T04:10:02.131Z,55.03
2022-12-14T04:13:28.027Z,54.98
2022-12-14T04:16:56.208Z,55.86
2022-12-14T04:20:09.821Z,55.29
2022-12-14T04:23:42.852Z,55.73
2022-12-14T04:26:53.527Z,55.33
2022-12-14T04:29:57.502Z,55.54
2022-12-14T04:33:27.133Z,55.33
2022-12-14T04:36:51.646Z,54.66
2022-12-14T04:40:05.521Z,55.20
2022-12-14T04:43:15.034Z,55.39
2022-12-14T04:46:25.308Z,55.15
2022-12-14T04:49:36.819Z,55.08
2022-12-14T04:52:47.161Z,54.98
2022-12-14T04:55:55.154Z,54.98
2022-12-14T04:58:57.443Z,54.73
2022-12-14T05:02:21.121Z,57.40
2022-12-14T05:05:30.850Z,56.39
2022-12-14T05:08:56.066Z,52.82
2022-12-14T05:12:18.301Z,50.24
2022-12-14T05:15:30.456Z,48.59
2022-12-14T05:18:39.013Z,47.65
2022-12-14T05:21:51.069Z,45.91
2022-12-14T05:24:53.244Z,44.85
2022-12-14T05:27:55.373Z,48.61
2022-12-14T05:30:57.529Z,57.34
2022-12-14T05:33:59.561Z,58.74
2022-12-14T05:37:01.577Z,58.02
2022-12-14T05:40:04.227Z,63.50
2022-12-14T05:43:12.372Z,65.69
2022-12-14T05:46:14.553Z,67.62
2022-12-14T05:49:16.693Z,66.85
2022-12-14T05:52:19.040Z,69.25
2022-12-14T05:55:21.398Z,66.72
2022-12-14T05:58:23.336Z,66.95
2022-12-14T06:01:25.548Z,67.93
2022-12-14T06:04:27.713Z,68.60
2022-12-14T06:07:29.776Z,67.65
2022-12-14T06:10:31.810Z,64.78
2022-12-14T06:13:33.896Z,64.76
2022-12-14T06:16:37.328Z,65.53
2022-12-14T06:19:39.607Z,62.82
2022-12-14T06:22:47.413Z,60.80
2022-12-14T06:25:56.554Z,65.26
2022-12-14T06:29:08.075Z,64.51
2022-12-14T06:32:10.165Z,63.74
2022-12-14T06:35:12.338Z,64.39
2022-12-14T06:38:15.031Z,69.16
2022-12-14T06:41:19.134Z,70.16
2022-12-14T06:44:21.311Z,69.23
2022-12-14T06:47:23.605Z,69.83
2022-12-14T06:50:29.867Z,70.22
2022-12-14T06:53:33.665Z,69.13
2022-12-14T06:56:35.812Z,68.10
2022-12-14T06:59:44.525Z,65.26
2022-12-14T07:02:47.654Z,65.23
2022-12-14T07:05:56.624Z,60.94
2022-12-14T07:09:14.828Z,61.39
2022-12-14T07:12:19.658Z,57.76
2022-12-14T07:15:21.762Z,60.58
2022-12-14T07:18:24.700Z,61.84
2022-12-14T07:21:27.690Z,61.30
2022-12-14T07:24:30.336Z,61.20
2022-12-14T07:27:33.081Z,61.77
2022-12-14T07:30:35.201Z,61.66
2022-12-14T07:33:37.637Z,61.76
2022-12-14T07:36:39.801Z,62.13
2022-12-14T07:39:41.817Z,62.72
2022-12-14T07:42:55.609Z,62.95
2022-12-14T07:46:16.389Z,64.47
2022-12-14T07:49:21.878Z,64.94
2022-12-14T07:52:37.175Z,66.03
2022-12-14T07:56:08.629Z,65.45
2022-12-14T07:59:25.665Z,66.08
2022-12-14T08:02:41.059Z,66.36
2022-12-14T08:05:43.304Z,66.67
2022-12-14T08:08:45.944Z,66.75
2022-12-14T08:11:48.846Z,67.41
2022-12-14T08:14:51.900Z,67.84
2022-12-14T08:17:56.651Z,66.10
2022-12-14T08:20:58.984Z,65.26
2022-12-14T08:24:01.488Z,64.08
2022-12-14T08:27:04.278Z,63.90
2022-12-14T08:30:08.599Z,63.11
2022-12-14T08:33:10.824Z,62.04
2022-12-14T08:36:21.711Z,61.13
2022-12-14T08:39:25.044Z,62.86
2022-12-14T08:42:27.253Z,62.77
2022-12-14T08:45:29.386Z,62.15
2022-12-14T08:48:31.648Z,62.74
2022-12-14T08:51:37.329Z,62.32
2022-12-14T08:54:39.347Z,62.77
2022-12-14T08:57:41.541Z,63.94
2022-12-14T09:00:43.624Z,64.33
2022-12-14T09:03:47.048Z,64.23
2022-12-14T09:06:49.106Z,65.24
2022-12-14T09:09:51.305Z,64.99
2022-12-14T09:12:53.369Z,65.40
2022-12-14T09:16:06.949Z,65.18
2022-12-14T09:19:09.103Z,64.87
2022-12-14T09:22:11.627Z,65.44
2022-12-14T09:25:13.929Z,65.35
2022-12-14T09:28:16.044Z,65.72
2022-12-14T09:31:21.143Z,66.00
2022-12-14T09:34:23.909Z,65.92
2022-12-14T09:37:26.289Z,65.49
2022-12-14T09:40:32.760Z,65.83
2022-12-14T09:43:43.820Z,64.99
2022-12-14T09:46:45.956Z,65.11
2022-12-14T09:49:57.523Z,65.19
2022-12-14T09:53:07.124Z,63.76
2022-12-14T09:56:14.921Z,64.31
2022-12-14T09:59:18.618Z,63.11
2022-12-14T10:02:38.223Z,63.10
2022-12-14T10:05:54.756Z,62.63
2022-12-14T10:09:03.675Z,62.24
2022-12-14T10:12:34.089Z,63.02
2022-12-14T10:15:58.005Z,65.53
2022-12-14T10:19:10.489Z,65.92
2022-12-14T10:22:36.428Z,64.29
2022-12-14T10:25:40.374Z,62.99
2022-12-14T10:29:00.731Z,63.35
2022-12-14T10:32:40.127Z,65.40
2022-12-14T10:35:45.895Z,65.03
2022-12-14T10:39:29.232Z,69.30
2022-12-14T10:42:58.382Z,68.56
2022-12-14T10:46:14.493Z,66.53
2022-12-14T10:49:30.142Z,67.22
2022-12-14T10:52:40.345Z,67.06
2022-12-14T10:55:46.033Z,68.38
2022-12-14T10:59:15.899Z,67.30
2022-12-14T11:02:40.249Z,68.21
2022-12-14T11:06:05.899Z,67.51
2022-12-14T11:09:24.340Z,66.88
2022-12-14T11:12:28.906Z,68.75
2022-12-14T11:15:47.158Z,64.83
2022-12-14T11:19:00.519Z,65.36
2022-12-14T11:22:17.153Z,63.10
2022-12-14T11:25:49.398Z,62.99
2022-12-14T11:28:56.397Z,62.60
2022-12-14T11:32:08.145Z,61.99
2022-12-14T11:35:17.539Z,61.71
2022-12-14T11:38:30.277Z,62.00
2022-12-14T11:41:42.508Z,61.59
2022-12-14T11:44:46.451Z,61.15
2022-12-14T11:48:20.277Z,62.04
2022-12-14T11:51:22.358Z,64.58
2022-12-14T11:54:24.867Z,63.77
2022-12-14T11:57:35.747Z,63.88
2022-12-14T12:00:49.156Z,63.98
2022-12-14T12:03:58.922Z,64.32
2022-12-14T12:07:13.085Z,64.36
2022-12-14T12:10:34.099Z,65.01
2022-12-14T12:13:40.136Z,66.08
2022-12-14T12:16:44.913Z,65.57
2022-12-14T12:19:51.745Z,65.41
2022-12-14T12:23:02.361Z,65.28
2022-12-14T12:26:15.296Z,64.18
2022-12-14T12:29:43.614Z,62.99
2022-12-14T12:32:52.346Z,63.68
2022-12-14T12:35:56.827Z,62.93
2022-12-14T12:39:08.035Z,62.99
2022-12-14T12:42:31.434Z,63.24
2022-12-14T12:45:43.681Z,62.65
2022-12-14T12:48:52.191Z,63.87
2022-12-14T12:52:00.515Z,63.88
2022-12-14T12:55:14.285Z,63.61
2022-12-14T12:58:30.722Z,63.36
2022-12-14T13:01:35.733Z,62.66
2022-12-14T13:04:41.362Z,62.85
2022-12-14T13:07:45.068Z,62.56
2022-12-14T13:11:24.607Z,62.62
2022-12-14T13:14:19.224Z,62.50
2022-12-14T13:17:33.179Z,63.48
2022-12-14T13:20:36.475Z,64.60
2022-12-14T13:23:46.338Z,64.37
2022-12-14T13:27:17.883Z,63.54
2022-12-14T13:30:29.141Z,61.27
2022-12-14T13:33:55.039Z,59.24
2022-12-14T13:37:18.272Z,55.65
2022-12-14T13:40:32.247Z,56.79
2022-12-14T13:44:04.761Z,58.23
2022-12-14T13:47:15.684Z,54.20
2022-12-14T13:50:39.989Z,52.61
2022-12-14T13:53:50.070Z,54.62
2022-12-14T13:57:08.056Z,55.64
2022-12-14T14:00:45.397Z,50.75
2022-12-14T14:03:51.249Z,52.21
2022-12-14T14:06:55.815Z,51.98
2022-12-14T14:10:04.972Z,50.83
2022-12-14T14:13:28.652Z,48.16
2022-12-14T14:16:43.647Z,51.89
2022-12-14T14:19:49.655Z,50.12
2022-12-14T14:23:17.540Z,48.98
2022-12-14T14:26:23.053Z,47.16
2022-12-14T14:29:30.478Z,48.47
2022-12-14T14:32:44.845Z,46.64
2022-12-14T14:35:49.777Z,45.51
2022-12-14T14:38:56.111Z,46.79
2022-12-14T14:42:03.383Z,46.02
2022-12-14T14:45:11.271Z,44.91
2022-12-14T14:48:50.539Z,45.25
2022-12-14T14:51:53.125Z,46.19
2022-12-14T14:55:43.322Z,45.01
2022-12-14T14:58:35.201Z,44.61
2022-12-14T15:01:48.227Z,46.14
2022-12-14T15:04:57.065Z,45.16
2022-12-14T15:08:22.654Z,43.63
2022-12-14T15:11:28.549Z,44.23
2022-12-14T15:14:36.679Z,43.62
2022-12-14T15:17:39.068Z,44.33
2022-12-14T15:20:41.570Z,46.51
2022-12-14T15:23:50.908Z,47.78
2022-12-14T15:26:54.080Z,47.73
2022-12-14T15:34:04.616Z,49.29
2022-12-14T15:42:34.367Z,46.55
2022-12-14T15:45:44.213Z,45.96
2022-12-14T15:48:46.244Z,51.41
2022-12-14T15:51:50.706Z,48.02
2022-12-14T15:54:53.172Z,47.69
2022-12-14T15:57:55.832Z,48.01
2022-12-14T16:01:27.987Z,49.92
2022-12-14T16:04:31.232Z,49.09
2022-12-14T16:07:42.468Z,48.28
2022-12-14T16:10:46.303Z,49.57
2022-12-14T16:13:50.750Z,49.56
2022-12-14T16:16:55.543Z,48.31
2022-12-14T16:20:20.847Z,49.10
2022-12-14T16:23:33.383Z,49.35
2022-12-14T16:26:38.766Z,47.72
2022-12-14T16:29:48.070Z,48.53
2022-12-14T16:33:06.575Z,49.75
2022-12-14T16:36:22.706Z,48.88
2022-12-14T16:39:32.542Z,48.83
2022-12-14T16:42:36.414Z,48.82
2022-12-14T16:46:06.300Z,49.75
2022-12-14T16:49:31.016Z,48.15
2022-12-14T16:52:37.660Z,46.96
2022-12-14T16:56:14.997Z,50.11
2022-12-14T16:59:42.261Z,48.42
2022-12-14T17:02:55.847Z,47.18
2022-12-14T17:06:05.499Z,49.31
2022-12-14T17:09:20.107Z,49.16
2022-12-14T17:12:24.140Z,47.98
2022-12-14T17:15:28.481Z,47.55
2022-12-14T17:18:34.433Z,48.16
2022-12-14T17:21:37.150Z,47.58
2022-12-14T17:24:39.491Z,46.73
2022-12-14T17:27:42.082Z,47.17
2022-12-14T17:30:44.131Z,49.19
2022-12-14T17:33:46.211Z,47.77
2022-12-14T17:36:48.339Z,48.02
2022-12-14T17:39:51.073Z,48.54
2022-12-14T17:42:56.256Z,48.14
2022-12-14T17:46:01.398Z,47.36
2022-12-14T17:49:06.799Z,47.63
2022-12-14T17:52:36.881Z,48.36
2022-12-14T17:55:38.952Z,47.00
2022-12-14T17:58:41.134Z,47.13
2022-12-14T18:01:45.738Z,48.38
2022-12-14T18:04:52.175Z,47.38
2022-12-14T18:07:54.842Z,46.54
2022-12-14T18:11:01.045Z,46.02
2022-12-14T18:14:03.703Z,46.95
2022-12-14T18:17:11.165Z,46.87
2022-12-14T18:20:14.321Z,45.24
2022-12-14T18:23:17.660Z,45.19
2022-12-14T18:26:21.272Z,45.95
2022-12-14T18:29:23.428Z,45.27
2022-12-14T18:32:25.836Z,44.78
2022-12-14T18:35:31.527Z,46.69
2022-12-14T18:38:33.511Z,46.72
2022-12-14T18:41:35.827Z,45.47
2022-12-14T18:44:38.822Z,45.41
2022-12-14T18:47:42.457Z,47.28
2022-12-14T18:50:46.301Z,45.73
2022-12-14T18:53:54.782Z,45.48
2022-12-14T18:56:57.267Z,45.27
2022-12-14T19:00:00.002Z,45.89
2022-12-14T19:03:03.758Z,45.98
2022-12-14T19:06:42.372Z,45.06
2022-12-14T19:09:31.213Z,45.98
2022-12-14T19:12:35.503Z,45.53
2022-12-14T19:15:37.751Z,44.62
2022-12-14T19:18:39.957Z,45.35
2022-12-14T19:21:42.296Z,46.00
2022-12-14T19:24:47.804Z,45.31
2022-12-14T19:28:56.099Z,46.51
2022-12-14T19:31:17.333Z,46.71
2022-12-14T19:34:19.785Z,45.42
2022-12-14T19:37:23.209Z,46.69
2022-12-14T19:40:26.860Z,46.66
2022-12-14T19:43:30.551Z,48.68
2022-12-14T19:46:32.917Z,50.10
2022-12-14T19:49:34.970Z,51.43
2022-12-14T19:52:38.623Z,52.53
2022-12-14T19:55:40.813Z,54.03
2022-12-14T19:58:43.622Z,54.44
2022-12-14T20:01:48.154Z,56.27
2022-12-14T20:04:50.887Z,56.30
2022-12-14T20:07:52.964Z,56.00
2022-12-14T20:10:55.163Z,58.13
2022-12-14T20:14:02.950Z,58.19
2022-12-14T20:17:11.262Z,59.66
2022-12-14T20:20:13.867Z,60.58
2022-12-14T20:23:15.945Z,60.23
2022-12-14T20:26:21.088Z,60.84
2022-12-14T20:29:23.695Z,61.04
2022-12-14T20:32:28.567Z,60.92
2022-12-14T20:35:53.702Z,60.95
2022-12-14T20:39:01.850Z,60.25
2022-12-14T20:42:04.118Z,59.97
2022-12-14T20:45:11.898Z,60.67
2022-12-14T20:48:14.061Z,59.82
2022-12-14T20:51:16.274Z,60.67
2022-12-14T20:54:22.388Z,61.60
2022-12-14T20:57:35.998Z,61.60
2022-12-14T21:00:38.110Z,61.57
2022-12-14T21:03:42.520Z,62.15
2022-12-14T21:06:44.817Z,62.51
2022-12-14T21:09:46.986Z,61.88
2022-12-14T21:12:49.264Z,63.30
2022-12-14T21:16:01.418Z,64.27
2022-12-14T21:19:05.882Z,63.30
2022-12-14T21:22:14.662Z,64.44
2022-12-14T21:25:16.822Z,64.02
2022-12-14T21:28:18.979Z,64.08
2022-12-14T21:31:25.235Z,63.71
2022-12-14T21:34:30.236Z,64.29
2022-12-14T21:37:32.510Z,64.08
2022-12-14T21:40:54.417Z,63.36
2022-12-14T21:43:59.378Z,63.76
2022-12-14T21:47:01.870Z,64.81
2022-12-14T21:50:06.001Z,65.19
2022-12-14T21:53:08.498Z,64.15
2022-12-14T21:56:30.435Z,64.77
2022-12-14T21:59:35.796Z,65.74
2022-12-14T22:02:37.999Z,66.77
2022-12-14T22:05:45.118Z,67.74
2022-12-14T22:08:47.580Z,66.83
2022-12-14T22:11:50.769Z,65.34
2022-12-14T22:14:55.671Z,64.27
2022-12-14T22:17:58.002Z,64.26
2022-12-14T22:21:06.810Z,63.74
2022-12-14T22:24:10.136Z,62.98
2022-12-14T22:27:12.938Z,62.64
2022-12-14T22:30:15.511Z,61.36
2022-12-14T22:33:17.628Z,61.05
2022-12-14T22:36:19.629Z,61.62
2022-12-14T22:39:21.602Z,60.93
2022-12-14T22:42:23.640Z,60.04
2022-12-14T22:45:27.739Z,60.36
2022-12-14T22:48:33.919Z,60.10
2022-12-14T22:51:38.175Z,59.43
2022-12-14T22:54:42.866Z,59.58
2022-12-14T22:57:47.345Z,59.14
2022-12-14T23:00:50.006Z,59.03
2022-12-14T23:03:53.151Z,60.33
2022-12-14T23:06:55.733Z,59.49
2022-12-14T23:10:16.502Z,59.43
2022-12-14T23:13:37.337Z,59.09
2022-12-14T23:16:58.084Z,59.92
2022-12-14T23:20:18.995Z,59.66
2022-12-14T23:23:42.111Z,59.56
2022-12-14T23:27:09.649Z,58.70
2022-12-14T23:30:30.952Z,58.35
2022-12-14T23:33:51.921Z,59.27
2022-12-14T23:37:17.993Z,59.29
2022-12-14T23:40:41.930Z,58.69
2022-12-14T23:44:02.733Z,58.71
2022-12-14T23:47:23.636Z,59.50
2022-12-14T23:50:45.874Z,59.38
2022-12-14T23:54:07.950Z,59.15
2022-12-14T23:57:28.728Z,58.76
